createdAt,value
2018-07-02T00:01:55.432Z,64.39
2018-07-02T00:04:23.747Z,64.13
2018-07-02T00:07:03.981Z,64.11
2018-07-02T00:09:31.735Z,63.68
2018-07-02T00:12:00.637Z,63.50
2018-07-02T00:14:28.952Z,63.29
2018-07-02T00:16:57.280Z,63.08
2018-07-02T00:19:25.652Z,62.95
2018-07-02T00:21:53.414Z,62.81
2018-07-02T00:24:22.314Z,62.73
2018-07-02T00:26:50.051Z,62.82
2018-07-02T00:29:20.416Z,63.04
2018-07-02T00:31:48.864Z,63.23
2018-07-02T00:34:17.114Z,63.37
2018-07-02T00:36:45.436Z,63.43
2018-07-02T00:39:13.800Z,63.50
2018-07-02T00:41:41.504Z,63.62
2018-07-02T00:44:10.415Z,63.66
2018-07-02T00:46:38.152Z,63.80
2018-07-02T00:49:06.472Z,63.82
2018-07-02T00:51:35.399Z,63.87
2018-07-02T00:54:03.199Z,63.89
2018-07-02T00:56:31.514Z,63.88
2018-07-02T00:58:59.904Z,63.99
2018-07-02T01:01:28.795Z,63.96
2018-07-02T01:03:56.572Z,63.94
2018-07-02T01:06:25.473Z,63.77
2018-07-02T01:08:53.827Z,63.63
2018-07-02T01:11:22.221Z,63.47
2018-07-02T01:13:50.563Z,63.33
2018-07-02T01:16:18.880Z,63.36
2018-07-02T01:18:46.669Z,63.31
2018-07-02T01:21:15.594Z,63.22
2018-07-02T01:23:43.959Z,63.10
2018-07-02T01:26:12.288Z,63.00
2018-07-02T01:28:41.139Z,62.84
2018-07-02T01:31:08.876Z,62.89
2018-07-02T01:33:37.199Z,63.01
2018-07-02T01:36:06.096Z,63.00
2018-07-02T01:38:34.405Z,63.03
2018-07-02T01:41:02.138Z,63.19
2018-07-02T01:43:30.484Z,63.27
2018-07-02T01:45:58.800Z,63.31
2018-07-02T01:48:27.785Z,63.61
2018-07-02T01:50:56.106Z,63.93
2018-07-02T01:53:24.496Z,64.12
2018-07-02T01:55:52.816Z,64.21
2018-07-02T01:58:20.594Z,64.40
2018-07-02T02:00:49.491Z,64.67
2018-07-02T02:03:17.227Z,66.98
2018-07-02T02:05:46.126Z,67.94
2018-07-02T02:08:13.869Z,68.43
2018-07-02T02:10:42.762Z,69.14
2018-07-02T02:13:11.087Z,69.39
2018-07-02T02:15:39.407Z,70.09
2018-07-02T02:18:07.143Z,70.32
2018-07-02T02:20:36.046Z,70.67
2018-07-02T02:23:04.360Z,71.46
2018-07-02T02:25:32.106Z,71.52
2018-07-02T02:28:01.014Z,71.67
2018-07-02T02:30:28.741Z,71.89
2018-07-02T02:32:57.640Z,72.04
2018-07-02T02:35:26.306Z,72.20
2018-07-02T02:37:54.664Z,71.93
2018-07-02T02:40:22.406Z,71.93
2018-07-02T02:42:50.719Z,72.14
2018-07-02T02:45:19.626Z,72.43
2018-07-02T02:47:47.361Z,72.81
2018-07-02T02:50:15.721Z,73.22
2018-07-02T02:52:44.004Z,73.57
2018-07-02T02:55:12.914Z,73.63
2018-07-02T02:57:40.652Z,74.09
2018-07-02T03:00:09.548Z,74.49
2018-07-02T03:02:37.864Z,74.48
2018-07-02T03:05:06.177Z,74.72
2018-07-02T03:07:33.919Z,74.43
2018-07-02T03:10:02.813Z,74.20
2018-07-02T03:12:31.127Z,73.73
2018-07-02T03:14:58.865Z,73.40
2018-07-02T03:17:27.764Z,73.29
2018-07-02T03:19:56.090Z,73.33
2018-07-02T03:22:24.423Z,73.38
2018-07-02T03:24:52.746Z,73.28
2018-07-02T03:27:21.075Z,73.10
2018-07-02T03:29:49.400Z,72.94
2018-07-02T03:32:17.146Z,72.78
2018-07-02T03:34:45.465Z,72.67
2018-07-02T03:37:14.456Z,72.56
2018-07-02T03:39:42.771Z,72.42
2018-07-02T03:42:10.510Z,72.22
2018-07-02T03:44:39.403Z,72.38
2018-07-02T03:47:07.149Z,72.30
2018-07-02T03:49:36.050Z,72.33
2018-07-02T03:52:03.818Z,72.26
2018-07-02T03:54:32.704Z,72.25
2018-07-02T03:57:00.487Z,72.42
2018-07-02T03:59:29.393Z,72.48
2018-07-02T04:01:57.711Z,72.58
2018-07-02T04:04:25.484Z,72.56
2018-07-02T04:06:54.381Z,72.54
2018-07-02T04:09:22.737Z,72.50
2018-07-02T04:11:51.030Z,72.64
2018-07-02T04:14:18.772Z,72.55
2018-07-02T04:16:47.100Z,72.71
2018-07-02T04:19:15.422Z,72.66
2018-07-02T04:21:43.749Z,72.68
2018-07-02T04:24:12.662Z,72.66
2018-07-02T04:26:40.397Z,72.70
2018-07-02T04:29:09.235Z,72.75
2018-07-02T04:31:37.635Z,73.09
2018-07-02T04:34:05.957Z,73.30
2018-07-02T04:36:34.310Z,73.33
2018-07-02T04:39:02.685Z,73.37
2018-07-02T04:41:31.016Z,73.50
2018-07-02T04:43:59.340Z,73.72
2018-07-02T04:46:27.077Z,73.47
2018-07-02T04:48:55.995Z,73.39
2018-07-02T04:51:30.816Z,73.33
2018-07-02T04:53:59.160Z,73.33
2018-07-02T04:56:26.903Z,73.16
2018-07-02T04:58:55.224Z,72.75
2018-07-02T05:01:23.541Z,72.57
2018-07-02T05:03:51.869Z,72.46
2018-07-02T05:06:20.189Z,72.26
2018-07-02T05:08:48.513Z,71.94
2018-07-02T05:11:17.441Z,71.69
2018-07-02T05:13:45.757Z,71.31
2018-07-02T05:16:14.067Z,70.86
2018-07-02T05:18:42.319Z,70.71
2018-07-02T05:21:10.137Z,70.44
2018-07-02T05:23:39.029Z,70.21
2018-07-02T05:26:06.759Z,69.85
2018-07-02T05:28:35.654Z,69.19
2018-07-02T05:31:03.400Z,68.64
2018-07-02T05:33:31.719Z,68.05
2018-07-02T05:36:00.625Z,68.15
2018-07-02T05:38:28.933Z,68.00
2018-07-02T05:40:57.312Z,68.06
2018-07-02T05:43:25.625Z,68.17
2018-07-02T05:45:53.935Z,68.34
2018-07-02T05:48:21.691Z,68.55
2018-07-02T05:50:50.009Z,68.78
2018-07-02T05:53:18.909Z,68.83
2018-07-02T05:55:47.235Z,68.99
2018-07-02T05:58:15.569Z,68.87
2018-07-02T06:00:43.308Z,68.80
2018-07-02T06:03:12.538Z,68.88
2018-07-02T06:05:40.854Z,68.71
2018-07-02T06:08:09.247Z,69.10
2018-07-02T06:10:36.906Z,69.38
2018-07-02T06:13:05.812Z,69.51
2018-07-02T06:15:34.126Z,69.48
2018-07-02T06:18:02.443Z,69.72
2018-07-02T06:20:30.189Z,70.09
2018-07-02T06:22:59.091Z,70.23
2018-07-02T06:25:27.398Z,70.51
2018-07-02T06:27:55.720Z,70.38
2018-07-02T06:30:24.053Z,70.31
2018-07-02T06:32:51.767Z,70.39
2018-07-02T06:35:20.684Z,70.46
2018-07-02T06:37:49.008Z,70.35
2018-07-02T06:40:17.326Z,70.02
2018-07-02T06:42:45.112Z,69.98
2018-07-02T06:45:22.811Z,69.43
2018-07-02T06:47:50.580Z,69.41
2018-07-02T06:50:18.896Z,69.25
2018-07-02T06:52:47.829Z,69.51
2018-07-02T06:55:15.570Z,69.61
2018-07-02T06:57:43.901Z,69.34
2018-07-02T07:00:12.802Z,69.31
2018-07-02T07:02:40.554Z,68.88
2018-07-02T07:05:08.869Z,68.84
2018-07-02T07:07:37.176Z,68.64
2018-07-02T07:10:05.488Z,68.37
2018-07-02T07:12:33.798Z,68.50
2018-07-02T07:15:02.698Z,68.11
2018-07-02T07:17:31.016Z,67.98
2018-07-02T07:19:58.750Z,67.97
2018-07-02T07:22:27.068Z,67.46
2018-07-02T07:24:55.967Z,67.40
2018-07-02T07:27:24.298Z,66.99
2018-07-02T07:29:52.603Z,66.72
2018-07-02T07:32:20.917Z,66.33
2018-07-02T07:34:49.225Z,66.04
2018-07-02T07:37:17.575Z,65.97
2018-07-02T07:39:45.860Z,65.21
2018-07-02T07:42:14.186Z,64.61
2018-07-02T07:44:42.548Z,64.64
2018-07-02T07:47:10.278Z,64.35
2018-07-02T07:49:39.168Z,64.48
2018-07-02T07:52:07.501Z,64.23
2018-07-02T07:54:35.834Z,63.87
2018-07-02T07:57:05.071Z,63.09
2018-07-02T08:00:06.981Z,62.45
2018-07-02T08:02:16.003Z,62.31
2018-07-02T08:04:44.312Z,62.40
2018-07-02T08:07:12.429Z,62.46
2018-07-02T08:09:40.364Z,61.71
2018-07-02T08:12:08.686Z,62.14
2018-07-02T08:14:37.891Z,62.41
2018-07-02T08:17:06.205Z,62.40
2018-07-02T08:19:34.557Z,61.90
2018-07-02T08:22:02.301Z,61.17
2018-07-02T08:24:31.123Z,61.04
2018-07-02T08:26:58.925Z,60.93
2018-07-02T08:29:27.264Z,60.78
2018-07-02T08:31:56.140Z,60.72
2018-07-02T08:34:24.461Z,60.42
2018-07-02T08:36:52.835Z,60.46
2018-07-02T08:39:21.157Z,60.62
2018-07-02T08:41:52.888Z,60.42
2018-07-02T08:44:21.214Z,59.68
2018-07-02T08:46:50.008Z,58.81
2018-07-02T08:49:17.704Z,58.45
2018-07-02T08:51:46.604Z,58.90
2018-07-02T08:54:14.353Z,59.13
2018-07-02T08:56:43.253Z,59.16
2018-07-02T08:59:11.573Z,58.77
2018-07-02T09:01:39.888Z,58.45
2018-07-02T09:04:07.630Z,58.61
2018-07-02T09:06:36.526Z,57.80
2018-07-02T09:09:04.852Z,57.44
2018-07-02T09:11:34.578Z,57.63
2018-07-02T09:14:02.041Z,57.37
2018-07-02T09:16:30.937Z,56.63
2018-07-02T09:18:59.308Z,56.51
2018-07-02T09:21:27.203Z,55.94
2018-07-02T09:23:55.976Z,55.69
2018-07-02T09:26:23.881Z,55.32
2018-07-02T09:28:52.038Z,54.86
2018-07-02T09:31:40.163Z,55.04
2018-07-02T09:34:08.481Z,53.95
2018-07-02T09:36:37.185Z,54.65
2018-07-02T09:39:05.570Z,54.60
2018-07-02T09:41:33.312Z,54.36
2018-07-02T09:44:02.236Z,53.68
2018-07-02T09:46:30.547Z,53.01
2018-07-02T09:48:58.910Z,52.95
2018-07-02T09:51:26.646Z,52.55
2018-07-02T09:53:54.973Z,52.81
2018-07-02T09:56:23.306Z,52.60
2018-07-02T09:58:52.219Z,52.19
2018-07-02T10:01:20.541Z,51.46
2018-07-02T10:03:48.867Z,51.38
2018-07-02T10:06:17.251Z,51.27
2018-07-02T10:08:44.917Z,51.33
2018-07-02T10:11:13.249Z,51.49
2018-07-02T10:13:41.569Z,51.34
2018-07-02T10:16:09.878Z,50.66
2018-07-02T10:18:38.192Z,50.52
2018-07-02T10:21:07.091Z,50.39
2018-07-02T10:23:37.335Z,50.39
2018-07-02T10:26:04.383Z,50.13
2018-07-02T10:28:32.678Z,50.50
2018-07-02T10:31:01.041Z,50.43
2018-07-02T10:33:29.347Z,50.23
2018-07-02T10:35:57.918Z,50.71
2018-07-02T10:38:26.237Z,50.35
2018-07-02T10:40:53.979Z,50.20
2018-07-02T10:43:22.880Z,49.53
2018-07-02T10:45:50.626Z,49.49
2018-07-02T10:48:19.831Z,49.77
2018-07-02T10:50:47.596Z,49.12
2018-07-02T10:53:16.487Z,49.01
2018-07-02T10:55:44.375Z,48.70
2018-07-02T10:58:12.661Z,47.91
2018-07-02T11:00:41.562Z,47.96
2018-07-02T11:03:09.888Z,47.53
2018-07-02T11:05:37.640Z,46.28
2018-07-02T11:08:05.952Z,47.07
2018-07-02T11:10:34.873Z,47.30
2018-07-02T11:13:04.004Z,46.84
2018-07-02T11:15:31.545Z,47.20
2018-07-02T11:17:59.876Z,47.73
2018-07-02T11:20:28.782Z,47.56
2018-07-02T11:22:57.089Z,47.33
2018-07-02T11:25:25.421Z,47.40
2018-07-02T11:27:53.168Z,47.48
2018-07-02T11:30:21.485Z,47.84
2018-07-02T11:32:50.387Z,47.73
2018-07-02T11:35:18.135Z,47.48
2018-07-02T11:37:47.036Z,47.52
2018-07-02T11:40:14.794Z,47.22
2018-07-02T11:42:43.705Z,46.58
2018-07-02T11:45:12.027Z,46.20
2018-07-02T11:47:40.354Z,46.22
2018-07-02T11:50:08.679Z,46.80
2018-07-02T11:52:37.072Z,46.50
2018-07-02T11:55:04.815Z,46.26
2018-07-02T11:57:33.716Z,45.52
2018-07-02T12:00:02.167Z,45.05
2018-07-02T12:02:29.900Z,44.00
2018-07-02T12:04:58.801Z,43.98
2018-07-02T12:07:27.125Z,44.13
2018-07-02T12:09:55.682Z,43.88
2018-07-02T12:12:24.576Z,43.98
2018-07-02T12:14:52.910Z,43.63
2018-07-02T12:17:21.219Z,41.45
2018-07-02T12:19:48.959Z,41.78
2018-07-02T12:22:17.863Z,41.94
2018-07-02T12:24:46.209Z,42.84
2018-07-02T12:27:15.111Z,42.42
2018-07-02T12:29:43.508Z,40.75
2018-07-02T12:32:11.981Z,41.42
2018-07-02T12:34:40.361Z,41.04
2018-07-02T12:37:08.091Z,40.67
2018-07-02T12:39:37.107Z,39.79
2018-07-02T12:42:05.416Z,39.86
2018-07-02T12:44:33.741Z,40.37
2018-07-02T12:47:02.071Z,39.47
2018-07-02T12:49:30.393Z,39.68
2018-07-02T12:51:58.905Z,39.01
2018-07-02T12:54:27.320Z,39.57
2018-07-02T12:57:04.691Z,39.62
2018-07-02T12:59:29.282Z,39.14
2018-07-02T13:01:57.018Z,39.91
2018-07-02T13:04:25.920Z,40.10
2018-07-02T13:06:54.249Z,39.92
2018-07-02T13:09:22.568Z,40.57
2018-07-02T13:11:51.219Z,40.38
2018-07-02T13:16:49.890Z,39.79
2018-07-02T13:19:18.800Z,39.71
2018-07-02T13:21:46.544Z,40.24
2018-07-02T13:24:14.866Z,40.45
2018-07-02T13:26:43.781Z,40.14
2018-07-02T13:29:11.524Z,40.54
2018-07-02T13:31:54.395Z,41.62
2018-07-02T13:34:23.339Z,41.91
2018-07-02T13:36:51.656Z,41.50
2018-07-02T13:39:19.987Z,41.22
2018-07-02T13:41:48.327Z,41.48
2018-07-02T13:44:16.643Z,41.59
2018-07-02T13:46:44.983Z,41.63
2018-07-02T13:49:13.291Z,41.54
2018-07-02T13:51:41.031Z,41.23
2018-07-02T13:54:09.927Z,40.99
2018-07-02T13:56:38.304Z,40.47
2018-07-02T13:59:06.618Z,40.88
2018-07-02T14:01:35.260Z,41.15
2018-07-02T14:04:03.579Z,41.22
2018-07-02T14:06:31.896Z,40.84
2018-07-02T14:09:00.235Z,39.93
2018-07-02T14:11:27.968Z,39.52
2018-07-02T14:13:57.749Z,38.13
2018-07-02T14:16:26.102Z,36.99
2018-07-02T14:18:54.429Z,36.15
2018-07-02T14:21:22.746Z,37.10
2018-07-02T14:23:51.070Z,37.57
2018-07-02T14:26:18.822Z,37.07
2018-07-02T14:28:47.187Z,35.79
2018-07-02T14:31:15.508Z,35.52
2018-07-02T14:33:44.504Z,34.62
2018-07-02T14:36:12.821Z,34.76
2018-07-02T14:38:40.573Z,34.86
2018-07-02T14:41:08.890Z,35.16
2018-07-02T14:43:37.791Z,35.37
2018-07-02T14:46:05.568Z,35.08
2018-07-02T14:48:33.913Z,34.97
2018-07-02T14:51:02.855Z,35.60
2018-07-02T14:53:30.568Z,35.69
2018-07-02T14:55:59.477Z,35.99
2018-07-02T14:58:28.692Z,36.28
2018-07-02T15:00:57.182Z,36.82
2018-07-02T15:03:25.953Z,36.61
2018-07-02T15:05:54.286Z,37.07
2018-07-02T15:08:22.022Z,37.89
2018-07-02T15:10:50.926Z,38.25
2018-07-02T15:13:19.254Z,38.77
2018-07-02T15:15:47.005Z,39.25
2018-07-02T15:18:15.923Z,39.59
2018-07-02T15:20:43.647Z,39.88
2018-07-02T15:23:12.541Z,40.11
2018-07-02T15:25:40.858Z,40.54
2018-07-02T15:28:09.170Z,40.81
2018-07-02T15:30:37.511Z,40.80
2018-07-02T15:33:05.836Z,41.28
2018-07-02T15:35:34.150Z,41.84
2018-07-02T15:38:02.468Z,42.23
2018-07-02T15:40:30.785Z,42.59
2018-07-02T15:42:58.530Z,42.64
2018-07-02T15:45:27.433Z,42.54
2018-07-02T15:47:55.751Z,42.20
2018-07-02T15:50:23.506Z,42.42
2018-07-02T15:52:51.950Z,42.62
2018-07-02T15:55:20.737Z,42.95
2018-07-02T16:00:46.857Z,42.32
2018-07-02T16:03:15.755Z,42.62
2018-07-02T16:05:44.286Z,43.06
2018-07-02T16:08:11.824Z,43.45
2018-07-02T16:10:40.732Z,43.85
2018-07-02T16:13:09.341Z,44.70
2018-07-02T16:15:37.661Z,44.97
2018-07-02T16:18:05.994Z,45.37
2018-07-02T16:20:34.323Z,45.79
2018-07-02T16:23:02.628Z,46.29
2018-07-02T16:25:31.865Z,46.46
2018-07-02T16:28:01.239Z,46.76
2018-07-02T16:30:29.441Z,47.12
2018-07-02T16:32:58.316Z,47.36
2018-07-02T16:35:26.066Z,47.58
2018-07-02T16:37:58.424Z,47.86
2018-07-02T16:40:27.157Z,48.12
2018-07-02T16:42:54.892Z,48.51
2018-07-02T16:45:23.784Z,48.68
2018-07-02T16:47:52.396Z,48.85
2018-07-02T16:50:20.652Z,49.02
2018-07-02T16:52:50.231Z,49.05
2018-07-02T16:55:18.554Z,49.10
2018-07-02T16:57:46.871Z,49.15
2018-07-02T17:00:15.218Z,49.44
2018-07-02T17:02:43.673Z,49.59
2018-07-02T17:05:12.005Z,49.76
2018-07-02T17:07:40.329Z,49.90
2018-07-02T17:10:08.662Z,50.00
2018-07-02T17:12:37.010Z,50.19
2018-07-02T17:15:05.320Z,50.49
2018-07-02T17:17:33.078Z,50.50
2018-07-02T17:20:01.405Z,50.64
2018-07-02T17:22:30.372Z,50.77
2018-07-02T17:24:59.273Z,50.75
2018-07-02T17:27:28.134Z,50.84
2018-07-02T17:29:57.048Z,50.96
2018-07-02T17:32:24.802Z,50.85
2018-07-02T17:34:53.707Z,50.94
2018-07-02T17:37:22.027Z,51.19
2018-07-02T17:39:50.367Z,51.38
2018-07-02T17:42:18.684Z,51.54
2018-07-02T17:44:47.100Z,51.76
2018-07-02T17:47:15.436Z,52.07
2018-07-02T17:49:43.746Z,52.32
2018-07-02T17:52:11.488Z,52.71
2018-07-02T17:54:41.119Z,52.95
2018-07-02T17:57:08.855Z,53.41
2018-07-02T17:59:37.329Z,53.74
2018-07-02T18:02:06.230Z,53.76
2018-07-02T18:04:34.511Z,53.71
2018-07-02T18:07:03.164Z,53.87
2018-07-02T18:09:31.489Z,53.87
2018-07-02T18:12:00.046Z,53.89
2018-07-02T18:14:28.237Z,54.02
2018-07-02T18:16:56.789Z,53.71
2018-07-02T18:22:02.105Z,53.70
2018-07-02T18:24:31.014Z,53.78
2018-07-02T18:26:58.775Z,53.39
2018-07-02T18:29:27.688Z,53.10
2018-07-02T18:31:56.013Z,52.88
2018-07-02T18:34:25.976Z,52.86
2018-07-02T18:37:02.148Z,52.79
2018-07-02T18:39:30.247Z,52.84
2018-07-02T18:41:58.573Z,53.15
2018-07-02T18:44:26.394Z,53.27
2018-07-02T18:46:55.228Z,53.42
2018-07-02T18:49:23.891Z,53.72
2018-07-02T18:51:52.484Z,53.76
2018-07-02T18:54:20.800Z,53.83
2018-07-02T18:56:49.139Z,53.77
2018-07-02T18:59:17.460Z,53.81
2018-07-02T19:01:45.793Z,54.03
2018-07-02T19:04:14.120Z,54.73
2018-07-02T19:06:42.716Z,55.67
2018-07-02T19:09:10.811Z,56.14
2018-07-02T19:11:39.178Z,56.72
2018-07-02T19:14:07.732Z,57.85
2018-07-02T19:16:36.569Z,57.74
2018-07-02T19:19:04.895Z,58.63
2018-07-02T19:21:32.649Z,59.01
2018-07-02T19:24:01.557Z,59.11
2018-07-02T19:26:29.301Z,59.19
2018-07-02T19:28:58.208Z,59.54
2018-07-02T19:31:25.956Z,59.71
2018-07-02T19:33:54.284Z,60.11
2018-07-02T19:36:23.186Z,60.13
2018-07-02T19:38:51.567Z,60.24
2018-07-02T19:41:19.340Z,60.23
2018-07-02T19:43:48.260Z,60.34
2018-07-02T19:46:16.675Z,60.48
2018-07-02T19:48:45.001Z,60.68
2018-07-02T19:51:13.332Z,60.91
2018-07-02T19:53:41.977Z,61.01
2018-07-02T19:56:10.304Z,61.05
2018-07-02T19:58:38.625Z,61.01
2018-07-02T20:01:07.294Z,61.08
2018-07-02T20:03:36.027Z,61.18
2018-07-02T20:06:04.339Z,61.31
2018-07-02T20:08:32.739Z,61.50
2018-07-02T20:11:02.451Z,61.51
2018-07-02T20:13:31.128Z,61.43
2018-07-02T20:15:59.420Z,61.41
2018-07-02T20:18:28.096Z,61.48
2018-07-02T20:20:56.373Z,61.50
2018-07-02T20:23:24.710Z,61.54
2018-07-02T20:25:53.045Z,61.60
2018-07-02T20:28:21.369Z,61.64
2018-07-02T20:30:49.693Z,61.72
2018-07-02T20:33:18.192Z,61.51
2018-07-02T20:35:46.524Z,61.39
2018-07-02T20:38:25.358Z,61.42
2018-07-02T20:40:53.734Z,61.50
2018-07-02T20:43:24.701Z,61.40
2018-07-02T20:45:51.794Z,61.34
2018-07-02T20:48:20.047Z,61.34
2018-07-02T20:50:48.382Z,61.41
2018-07-02T20:53:16.746Z,61.36
2018-07-02T20:55:45.138Z,61.36
2018-07-02T20:58:13.425Z,61.30
2018-07-02T21:00:41.217Z,61.30
2018-07-02T21:03:10.225Z,61.22
2018-07-02T21:05:38.574Z,61.13
2018-07-02T21:08:19.827Z,60.93
2018-07-02T21:10:43.517Z,60.94
2018-07-02T21:13:20.535Z,60.86
2018-07-02T21:15:48.374Z,60.83
2018-07-02T21:18:16.629Z,60.80
2018-07-02T21:20:56.725Z,60.67
2018-07-02T21:26:19.833Z,60.35
2018-07-02T21:28:48.780Z,60.46
2018-07-02T21:31:17.104Z,60.63
2018-07-02T21:33:45.430Z,60.71
2018-07-02T21:36:34.343Z,60.89
2018-07-02T21:39:03.481Z,60.70
2018-07-02T21:41:32.410Z,60.68
2018-07-02T21:44:00.735Z,60.64
2018-07-02T21:46:28.467Z,60.63
2018-07-02T21:48:56.782Z,60.59
2018-07-02T21:51:25.686Z,60.61
2018-07-02T21:53:54.390Z,60.65
2018-07-02T21:56:22.133Z,60.44
2018-07-02T21:58:50.486Z,60.48
2018-07-02T22:01:19.382Z,60.18
2018-07-02T22:03:47.704Z,60.09
2018-07-02T22:06:16.034Z,59.93
2018-07-02T22:08:44.362Z,59.86
2018-07-02T22:11:12.726Z,59.79
2018-07-02T22:13:40.466Z,59.83
2018-07-02T22:16:08.778Z,59.88
2018-07-02T22:18:37.676Z,59.81
2018-07-02T22:21:05.992Z,59.61
2018-07-02T22:23:34.307Z,59.36
2018-07-02T22:26:02.634Z,59.23
2018-07-02T22:28:31.235Z,59.22
2018-07-02T22:30:59.535Z,59.17
2018-07-02T22:33:27.874Z,58.97
2018-07-02T22:35:56.201Z,59.13
2018-07-02T22:38:24.566Z,59.18
2018-07-02T22:40:52.315Z,59.23
2018-07-02T22:43:21.275Z,59.24
2018-07-02T22:45:49.578Z,59.30
2018-07-02T22:48:17.877Z,59.26
2018-07-02T22:50:46.257Z,59.25
2018-07-02T22:53:14.011Z,59.36
2018-07-02T22:55:42.331Z,59.43
2018-07-02T22:58:11.321Z,59.54
2018-07-02T23:00:39.685Z,59.75
2018-07-02T23:03:08.008Z,59.82
2018-07-02T23:05:36.338Z,59.83
2018-07-02T23:08:04.078Z,59.92
2018-07-02T23:10:32.401Z,59.98
2018-07-02T23:13:01.641Z,60.15
2018-07-02T23:15:29.965Z,60.44
2018-07-02T23:17:58.870Z,60.59
2018-07-02T23:20:26.607Z,60.64
2018-07-02T23:22:55.797Z,60.79
2018-07-02T23:25:24.114Z,61.01
2018-07-02T23:27:51.846Z,61.44
2018-07-02T23:30:20.739Z,61.68
2018-07-02T23:32:49.400Z,61.99
2018-07-02T23:35:18.139Z,62.17
2018-07-02T23:37:46.427Z,62.18
2018-07-02T23:40:14.738Z,62.35
2018-07-02T23:42:42.483Z,62.36
2018-07-02T23:45:10.803Z,62.32
2018-07-02T23:47:39.118Z,62.39
2018-07-02T23:50:08.013Z,62.53
2018-07-02T23:52:36.340Z,62.76
2018-07-02T23:55:04.093Z,62.92
2018-07-02T23:57:32.993Z,62.99
